createdAt,value
2018-11-20T00:01:53.436Z,15.90
2018-11-20T00:04:40.645Z,15.90
2018-11-20T00:07:34.055Z,15.90
2018-11-20T00:10:33.242Z,15.90
2018-11-20T00:13:20.478Z,15.90
2018-11-20T00:16:11.055Z,15.90
2018-11-20T00:18:56.771Z,15.90
2018-11-20T00:21:37.040Z,15.90
2018-11-20T00:24:27.268Z,15.80
2018-11-20T00:27:17.698Z,15.80
2018-11-20T00:30:03.865Z,15.80
2018-11-20T00:32:54.031Z,15.80
2018-11-20T00:35:39.695Z,15.80
2018-11-20T00:38:45.690Z,15.80
2018-11-20T00:41:22.252Z,15.80
2018-11-20T00:44:15.522Z,15.80
2018-11-20T00:47:04.486Z,15.80
2018-11-20T00:50:09.730Z,15.80
2018-11-20T00:53:06.249Z,15.80
2018-11-20T00:56:11.620Z,15.70
2018-11-20T00:59:08.378Z,15.80
2018-11-20T01:01:59.414Z,15.80
2018-11-20T01:04:46.663Z,15.80
2018-11-20T01:07:32.359Z,15.80
2018-11-20T01:10:16.736Z,15.80
2018-11-20T01:13:02.859Z,15.70
2018-11-20T01:15:59.268Z,15.70
2018-11-20T01:18:44.905Z,15.70
2018-11-20T01:21:30.536Z,15.80
2018-11-20T01:27:26.517Z,15.80
2018-11-20T01:30:12.284Z,15.80
2018-11-20T01:32:50.532Z,15.70
2018-11-20T01:35:36.555Z,15.70
2018-11-20T01:38:39.105Z,15.70
2018-11-20T01:41:33.080Z,15.70
2018-11-20T01:44:18.958Z,15.70
2018-11-20T01:47:09.078Z,15.70
2018-11-20T01:49:54.361Z,15.70
2018-11-20T01:52:41.651Z,15.70
2018-11-20T01:55:28.713Z,15.70
2018-11-20T01:58:14.855Z,15.70
2018-11-20T02:01:05.380Z,15.70
2018-11-20T02:03:45.919Z,15.70
2018-11-20T02:06:31.957Z,15.70
2018-11-20T02:09:19.707Z,15.70
2018-11-20T02:12:07.344Z,15.70
2018-11-20T02:14:54.594Z,15.70
2018-11-20T02:17:52.553Z,15.70
2018-11-20T02:20:42.644Z,15.70
2018-11-20T02:23:22.016Z,15.70
2018-11-20T02:26:09.253Z,15.70
2018-11-20T02:28:58.566Z,15.70
2018-11-20T02:31:44.341Z,15.70
2018-11-20T02:34:43.542Z,15.70
2018-11-20T02:37:33.526Z,15.70
2018-11-20T02:40:23.729Z,15.70
2018-11-20T02:43:01.856Z,15.70
2018-11-20T02:45:48.405Z,15.70
2018-11-20T02:48:34.118Z,15.70
2018-11-20T02:51:19.886Z,15.70
2018-11-20T02:54:06.130Z,15.70
2018-11-20T02:56:53.953Z,15.70
2018-11-20T02:59:46.562Z,15.70
2018-11-20T03:02:32.669Z,15.70
2018-11-20T03:05:18.577Z,15.60
2018-11-20T03:08:08.128Z,15.70
2018-11-20T03:10:53.865Z,15.70
2018-11-20T03:13:32.752Z,15.70
2018-11-20T03:16:15.326Z,15.70
2018-11-20T03:19:01.829Z,15.70
2018-11-20T03:21:37.844Z,15.70
2018-11-20T03:24:21.960Z,15.70
2018-11-20T03:27:05.351Z,15.70
2018-11-20T03:30:32.033Z,15.70
2018-11-20T03:33:17.843Z,15.70
2018-11-20T03:36:03.840Z,15.60
2018-11-20T03:38:49.883Z,15.60
2018-11-20T03:41:42.083Z,15.60
2018-11-20T03:44:35.137Z,15.60
2018-11-20T03:47:23.141Z,15.60
2018-11-20T03:50:13.631Z,15.60
2018-11-20T03:53:06.789Z,15.60
2018-11-20T03:55:53.405Z,15.60
2018-11-20T03:58:49.707Z,15.60
2018-11-20T04:01:35.411Z,15.60
2018-11-20T04:04:17.077Z,15.60
2018-11-20T04:06:56.354Z,15.60
2018-11-20T04:09:40.007Z,15.60
2018-11-20T04:12:19.441Z,15.60
2018-11-20T04:14:59.771Z,15.50
2018-11-20T04:17:53.270Z,15.60
2018-11-20T04:20:41.999Z,15.50
2018-11-20T04:23:34.969Z,15.50
2018-11-20T04:26:21.272Z,15.60
2018-11-20T04:29:11.870Z,15.50
2018-11-20T04:31:59.604Z,15.50
2018-11-20T04:34:49.494Z,15.50
2018-11-20T04:37:37.835Z,15.50
2018-11-20T04:40:20.695Z,15.50
2018-11-20T04:43:06.741Z,15.50
2018-11-20T04:45:47.828Z,15.50
2018-11-20T04:48:35.053Z,15.50
2018-11-20T04:51:09.745Z,15.50
2018-11-20T04:53:56.993Z,15.50
2018-11-20T04:56:43.196Z,15.50
2018-11-20T04:59:36.777Z,15.50
2018-11-20T05:02:23.287Z,15.50
2018-11-20T05:05:09.526Z,15.50
2018-11-20T05:08:00.122Z,15.50
2018-11-20T05:10:42.739Z,15.50
2018-11-20T05:13:28.771Z,15.60
2018-11-20T05:16:14.917Z,15.60
2018-11-20T05:19:02.654Z,15.60
2018-11-20T05:21:49.859Z,15.70
2018-11-20T05:24:30.772Z,15.80
2018-11-20T05:27:20.800Z,15.80
2018-11-20T05:30:03.183Z,15.80
2018-11-20T05:32:49.432Z,15.90
2018-11-20T05:35:36.693Z,15.90
2018-11-20T05:38:14.957Z,15.90
2018-11-20T05:41:08.142Z,16.00
2018-11-20T05:44:13.570Z,16.00
2018-11-20T05:46:52.737Z,16.00
2018-11-20T05:49:49.124Z,16.10
2018-11-20T05:52:54.650Z,16.10
2018-11-20T05:55:56.900Z,16.10
2018-11-20T05:58:46.922Z,16.10
2018-11-20T06:01:33.172Z,16.10
2018-11-20T06:04:19.288Z,16.10
2018-11-20T06:07:15.114Z,16.20
2018-11-20T06:10:02.586Z,16.20
2018-11-20T06:12:42.776Z,16.20
2018-11-20T06:15:32.503Z,16.20
2018-11-20T06:18:19.184Z,16.20
2018-11-20T06:21:23.208Z,16.30
2018-11-20T06:24:14.519Z,16.30
2018-11-20T06:27:00.571Z,16.30
2018-11-20T06:29:54.200Z,16.30
2018-11-20T06:32:44.169Z,16.30
2018-11-20T06:35:28.304Z,16.30
2018-11-20T06:38:12.093Z,16.30
2018-11-20T06:40:58.613Z,16.40
2018-11-20T06:43:37.998Z,16.40
2018-11-20T06:46:31.904Z,16.40
2018-11-20T06:49:19.131Z,16.40
2018-11-20T06:52:03.880Z,16.40
2018-11-20T06:55:09.739Z,16.40
2018-11-20T06:57:55.758Z,16.40
2018-11-20T07:00:41.697Z,16.40
2018-11-20T07:05:57.776Z,16.30
2018-11-20T07:08:56.994Z,16.20
2018-11-20T07:11:43.033Z,16.30
2018-11-20T07:14:44.076Z,16.30
2018-11-20T07:17:29.962Z,16.40
2018-11-20T07:20:20.411Z,16.40
2018-11-20T07:23:10.695Z,16.40
2018-11-20T07:25:54.363Z,16.40
2018-11-20T07:28:48.038Z,16.40
2018-11-20T07:31:35.810Z,16.50
2018-11-20T07:34:23.150Z,16.50
2018-11-20T07:37:19.357Z,16.50
2018-11-20T07:40:05.113Z,16.50
2018-11-20T07:43:07.479Z,16.50
2018-11-20T07:46:03.481Z,16.50
2018-11-20T07:48:41.407Z,16.40
2018-11-20T07:51:27.311Z,16.40
2018-11-20T07:54:08.169Z,16.50
2018-11-20T07:57:00.941Z,16.50
2018-11-20T07:59:48.236Z,16.50
2018-11-20T08:02:34.029Z,16.50
2018-11-20T08:05:19.982Z,16.50
2018-11-20T08:08:05.819Z,16.40
2018-11-20T08:10:46.064Z,16.50
2018-11-20T08:13:22.219Z,16.50
2018-11-20T08:15:59.728Z,16.50
2018-11-20T08:18:47.641Z,16.50
2018-11-20T08:21:33.516Z,16.50
2018-11-20T08:24:29.539Z,16.50
2018-11-20T08:27:31.883Z,16.50
2018-11-20T08:30:11.459Z,16.50
2018-11-20T08:32:54.257Z,16.50
2018-11-20T08:35:50.146Z,16.50
2018-11-20T08:38:35.848Z,16.50
2018-11-20T08:41:19.192Z,16.50
2018-11-20T08:44:05.189Z,16.60
2018-11-20T08:46:55.341Z,16.50
2018-11-20T08:49:41.364Z,16.50
2018-11-20T08:52:22.483Z,16.50
2018-11-20T08:55:15.806Z,16.50
2018-11-20T08:58:01.633Z,16.50
2018-11-20T09:00:44.586Z,16.50
2018-11-20T09:04:24.253Z,16.50
2018-11-20T09:07:09.954Z,16.60
2018-11-20T09:09:59.817Z,16.60
2018-11-20T09:13:01.940Z,16.60
2018-11-20T09:15:47.360Z,16.60
2018-11-20T09:18:32.977Z,16.60
2018-11-20T09:21:22.638Z,16.60
2018-11-20T09:24:09.355Z,16.60
2018-11-20T09:26:53.308Z,16.60
2018-11-20T09:29:42.679Z,16.60
2018-11-20T09:32:27.926Z,16.60
2018-11-20T09:35:13.373Z,16.60
2018-11-20T09:38:18.473Z,16.60
2018-11-20T09:41:06.330Z,16.60
2018-11-20T09:43:56.139Z,16.60
2018-11-20T09:46:50.915Z,16.60
2018-11-20T09:49:34.604Z,16.60
2018-11-20T09:52:19.626Z,16.60
2018-11-20T09:55:07.169Z,16.60
2018-11-20T09:58:08.807Z,16.60
2018-11-20T10:00:54.443Z,16.60
2018-11-20T10:03:50.504Z,16.60
2018-11-20T10:06:42.120Z,16.60
2018-11-20T10:09:27.455Z,16.60
2018-11-20T10:12:29.177Z,16.60
2018-11-20T10:15:10.350Z,16.70
2018-11-20T10:17:56.027Z,16.70
2018-11-20T10:23:37.766Z,16.70
2018-11-20T10:26:20.603Z,16.60
2018-11-20T10:29:05.583Z,16.60
2018-11-20T10:31:51.832Z,16.60
2018-11-20T10:34:38.727Z,16.60
2018-11-20T10:37:19.607Z,16.60
2018-11-20T10:40:18.501Z,16.60
2018-11-20T10:43:08.168Z,16.60
2018-11-20T10:45:47.238Z,16.60
2018-11-20T10:48:32.683Z,16.60
2018-11-20T10:51:18.305Z,16.60
2018-11-20T10:54:23.400Z,16.60
2018-11-20T10:57:12.902Z,16.60
2018-11-20T10:59:58.483Z,16.60
2018-11-20T11:03:03.580Z,16.60
2018-11-20T11:05:49.887Z,16.60
2018-11-20T11:08:35.209Z,16.60
2018-11-20T11:11:21.913Z,16.60
2018-11-20T11:14:07.594Z,16.60
2018-11-20T11:16:48.266Z,16.60
2018-11-20T11:19:40.895Z,16.60
2018-11-20T11:22:30.681Z,16.60
2018-11-20T11:25:17.228Z,16.60
2018-11-20T11:28:13.000Z,16.60
2018-11-20T11:30:59.834Z,16.60
2018-11-20T11:33:45.870Z,16.60
2018-11-20T11:36:42.449Z,16.60
2018-11-20T11:39:27.326Z,16.60
2018-11-20T11:42:23.256Z,16.60
2018-11-20T11:45:17.760Z,16.60
2018-11-20T11:48:07.717Z,16.50
2018-11-20T11:50:53.268Z,16.50
2018-11-20T11:53:33.235Z,16.50
2018-11-20T11:56:29.186Z,16.50
2018-11-20T11:59:15.337Z,16.50
2018-11-20T12:04:47.013Z,16.50
2018-11-20T12:07:36.528Z,16.40
2018-11-20T12:10:14.865Z,16.40
2018-11-20T12:13:00.090Z,16.50
2018-11-20T12:15:41.336Z,16.50
2018-11-20T12:18:36.972Z,16.50
2018-11-20T12:21:28.008Z,16.50
2018-11-20T12:24:23.692Z,16.40
2018-11-20T12:27:02.637Z,16.50
2018-11-20T12:29:55.518Z,16.40
2018-11-20T12:32:43.641Z,16.40
2018-11-20T12:35:48.377Z,16.50
2018-11-20T12:38:35.162Z,16.50
2018-11-20T12:41:31.109Z,16.50
2018-11-20T12:44:09.536Z,16.50
2018-11-20T12:46:50.948Z,16.50
2018-11-20T12:49:32.162Z,16.50
2018-11-20T12:52:17.267Z,16.50
2018-11-20T12:55:12.754Z,16.50
2018-11-20T12:57:49.176Z,16.50
2018-11-20T13:00:39.467Z,16.40
2018-11-20T13:03:37.898Z,16.50
2018-11-20T13:06:29.481Z,16.50
2018-11-20T13:09:15.701Z,16.50
2018-11-20T13:11:57.609Z,16.50
2018-11-20T13:14:34.094Z,16.50
2018-11-20T13:17:39.833Z,16.50
2018-11-20T13:20:29.616Z,16.50
2018-11-20T13:23:17.736Z,16.50
2018-11-20T13:25:57.799Z,16.50
2018-11-20T13:28:43.043Z,16.50
2018-11-20T13:31:20.743Z,16.50
2018-11-20T13:34:07.531Z,16.50
2018-11-20T13:37:03.289Z,16.50
2018-11-20T13:39:59.173Z,16.50
2018-11-20T13:42:53.672Z,16.50
2018-11-20T13:45:29.999Z,16.40
2018-11-20T13:48:16.773Z,16.50
2018-11-20T13:51:12.634Z,16.50
2018-11-20T13:53:58.182Z,16.50
2018-11-20T13:56:54.460Z,16.40
2018-11-20T13:59:39.850Z,16.40
2018-11-20T14:02:36.633Z,16.40
2018-11-20T14:05:21.867Z,16.40
2018-11-20T14:08:09.349Z,16.40
2018-11-20T14:11:02.278Z,16.40
2018-11-20T14:13:39.171Z,16.40
2018-11-20T14:16:24.632Z,16.40
2018-11-20T14:19:18.489Z,16.40
2018-11-20T14:22:02.697Z,16.40
2018-11-20T14:24:46.948Z,16.40
2018-11-20T14:27:32.120Z,16.40
2018-11-20T14:30:33.837Z,16.40
2018-11-20T14:33:19.771Z,16.40
2018-11-20T14:36:05.109Z,16.40
2018-11-20T14:38:59.408Z,16.30
2018-11-20T14:41:45.100Z,16.30
2018-11-20T14:44:29.701Z,16.30
2018-11-20T14:47:10.687Z,16.30
2018-11-20T14:50:00.305Z,16.30
2018-11-20T14:52:45.447Z,16.30
2018-11-20T14:55:44.205Z,16.30
2018-11-20T14:58:17.208Z,16.30
2018-11-20T15:01:02.717Z,16.30
2018-11-20T15:04:02.030Z,16.30
2018-11-20T15:06:37.605Z,16.30
2018-11-20T15:09:39.055Z,16.30
2018-11-20T15:12:35.286Z,16.30
2018-11-20T15:15:15.371Z,16.30
2018-11-20T15:18:00.647Z,16.30
2018-11-20T15:20:46.352Z,16.30
2018-11-20T15:23:36.063Z,16.30
2018-11-20T15:26:22.849Z,16.20
2018-11-20T15:29:12.400Z,16.30
2018-11-20T15:31:59.223Z,16.20
2018-11-20T15:34:45.054Z,16.30
2018-11-20T15:37:30.289Z,16.20
2018-11-20T15:40:35.231Z,16.20
2018-11-20T15:43:22.135Z,16.20
2018-11-20T15:46:20.881Z,16.20
2018-11-20T15:49:06.750Z,16.20
2018-11-20T15:52:11.720Z,16.20
2018-11-20T15:55:10.461Z,16.20
2018-11-20T15:58:03.267Z,16.20
2018-11-20T16:00:54.884Z,16.20
2018-11-20T16:03:39.303Z,16.20
2018-11-20T16:06:40.694Z,16.20
2018-11-20T16:09:45.334Z,16.20
2018-11-20T16:12:41.435Z,16.20
2018-11-20T16:15:37.280Z,16.20
2018-11-20T16:18:11.904Z,16.20
2018-11-20T16:20:58.034Z,16.20
2018-11-20T16:23:51.370Z,16.20
2018-11-20T16:26:36.943Z,16.20
2018-11-20T16:29:28.454Z,16.20
2018-11-20T16:32:14.050Z,16.20
2018-11-20T16:35:16.137Z,16.20
2018-11-20T16:38:02.963Z,16.20
2018-11-20T16:41:05.086Z,16.20
2018-11-20T16:43:54.453Z,16.30
2018-11-20T16:46:45.570Z,16.30
2018-11-20T16:49:44.317Z,16.30
2018-11-20T16:52:34.217Z,16.40
2018-11-20T16:55:26.270Z,16.40
2018-11-20T16:58:10.130Z,16.40
2018-11-20T17:00:57.407Z,16.40
2018-11-20T17:03:42.652Z,16.40
2018-11-20T17:06:28.365Z,16.50
2018-11-20T17:09:25.432Z,16.50
2018-11-20T17:12:12.229Z,16.50
2018-11-20T17:14:57.553Z,16.50
2018-11-20T17:17:35.010Z,16.50
2018-11-20T17:20:20.607Z,16.50
2018-11-20T17:23:01.488Z,16.50
2018-11-20T17:25:39.777Z,16.60
2018-11-20T17:28:26.614Z,16.60
2018-11-20T17:31:28.816Z,16.60
2018-11-20T17:34:21.669Z,16.60
2018-11-20T17:37:07.343Z,16.60
2018-11-20T17:40:09.037Z,16.60
2018-11-20T17:42:58.983Z,16.60
2018-11-20T17:45:37.980Z,16.60
2018-11-20T17:48:24.815Z,16.60
2018-11-20T17:51:10.072Z,16.60
2018-11-20T17:53:55.737Z,16.70
2018-11-20T17:56:41.161Z,16.70
2018-11-20T17:59:36.732Z,16.70
2018-11-20T18:02:23.727Z,16.70
2018-11-20T18:05:10.767Z,16.70
2018-11-20T18:08:06.328Z,16.70
2018-11-20T18:11:00.967Z,16.80
2018-11-20T18:13:53.748Z,16.80
2018-11-20T18:16:39.227Z,16.70
2018-11-20T18:19:16.590Z,16.80
2018-11-20T18:22:01.941Z,16.80
2018-11-20T18:24:48.894Z,16.70
2018-11-20T18:27:36.037Z,16.80
2018-11-20T18:30:24.483Z,16.70
2018-11-20T18:33:05.987Z,16.80
2018-11-20T18:35:44.315Z,16.70
2018-11-20T18:38:33.943Z,16.80
2018-11-20T18:41:18.933Z,16.70
2018-11-20T18:44:13.133Z,16.70
2018-11-20T18:46:58.556Z,16.70
2018-11-20T18:49:48.289Z,16.70
2018-11-20T18:52:31.236Z,16.70
2018-11-20T18:55:16.537Z,16.70
2018-11-20T18:58:02.129Z,16.70
2018-11-20T19:00:48.239Z,16.70
2018-11-20T19:03:44.756Z,16.70
2018-11-20T19:06:23.251Z,16.70
2018-11-20T19:09:12.821Z,16.70
2018-11-20T19:12:03.571Z,16.70
2018-11-20T19:14:45.473Z,16.70
2018-11-20T19:17:43.785Z,16.70
2018-11-20T19:20:36.551Z,16.70
2018-11-20T19:23:29.460Z,16.70
2018-11-20T19:26:13.381Z,16.70
2018-11-20T19:29:15.060Z,16.70
2018-11-20T19:32:03.223Z,16.70
2018-11-20T19:35:06.171Z,16.70
2018-11-20T19:37:59.143Z,16.60
2018-11-20T19:40:55.019Z,16.40
2018-11-20T19:43:41.156Z,16.50
2018-11-20T19:46:19.552Z,16.50
2018-11-20T19:49:07.078Z,16.50
2018-11-20T19:52:00.546Z,16.60
2018-11-20T19:54:51.229Z,16.60
2018-11-20T19:57:50.230Z,16.60
2018-11-20T20:00:49.373Z,16.60
2018-11-20T20:03:51.157Z,16.60
2018-11-20T20:06:36.862Z,16.50
2018-11-20T20:09:36.054Z,16.50
2018-11-20T20:12:18.145Z,16.50
2018-11-20T20:15:04.334Z,16.50
2018-11-20T20:17:53.854Z,16.50
2018-11-20T20:20:43.781Z,16.40
2018-11-20T20:23:33.854Z,16.50
2018-11-20T20:26:37.010Z,16.40
2018-11-20T20:29:22.951Z,16.50
2018-11-20T20:32:22.509Z,16.40
2018-11-20T20:35:05.029Z,16.40
2018-11-20T20:37:58.256Z,16.40
2018-11-20T20:40:41.545Z,16.40
2018-11-20T20:43:23.254Z,16.40
2018-11-20T20:46:09.076Z,16.40
2018-11-20T20:48:53.959Z,16.50
2018-11-20T20:51:44.468Z,16.40
2018-11-20T20:54:30.267Z,16.40
2018-11-20T20:57:17.134Z,16.40
2018-11-20T21:00:10.301Z,16.40
2018-11-20T21:03:12.233Z,16.40
2018-11-20T21:06:01.908Z,16.40
2018-11-20T21:08:48.836Z,16.40
2018-11-20T21:11:41.826Z,16.40
2018-11-20T21:14:31.843Z,16.40
2018-11-20T21:17:17.795Z,16.40
2018-11-20T21:20:03.521Z,16.40
2018-11-20T21:22:52.285Z,16.40
2018-11-20T21:25:37.815Z,16.40
2018-11-20T21:28:38.980Z,16.40
2018-11-20T21:31:24.281Z,16.30
2018-11-20T21:34:17.103Z,16.30
2018-11-20T21:37:12.221Z,16.30
2018-11-20T21:39:57.672Z,16.30
2018-11-20T21:42:43.658Z,16.40
2018-11-20T21:45:33.312Z,16.40
2018-11-20T21:48:23.385Z,16.40
2018-11-20T21:51:08.167Z,16.30
2018-11-20T21:53:45.036Z,16.40
2018-11-20T21:56:36.906Z,16.30
2018-11-20T21:59:23.407Z,16.30
2018-11-20T22:02:11.527Z,16.30
2018-11-20T22:04:59.803Z,16.30
2018-11-20T22:07:45.241Z,16.30
2018-11-20T22:10:35.487Z,16.30
2018-11-20T22:13:21.063Z,16.30
2018-11-20T22:16:06.408Z,16.30
2018-11-20T22:19:05.511Z,16.30
2018-11-20T22:21:52.580Z,16.30
2018-11-20T22:24:42.182Z,16.30
2018-11-20T22:27:31.767Z,16.30
2018-11-20T22:30:25.255Z,16.20
2018-11-20T22:33:18.061Z,16.20
2018-11-20T22:36:16.896Z,16.30
2018-11-20T22:38:55.413Z,16.20
2018-11-20T22:41:46.185Z,16.20
2018-11-20T22:44:31.553Z,16.20
2018-11-20T22:47:18.451Z,16.20
2018-11-20T22:49:54.496Z,16.20
2018-11-20T22:52:56.202Z,16.20
2018-11-20T22:55:41.783Z,16.20
2018-11-20T22:58:22.442Z,16.20
2018-11-20T23:01:24.313Z,16.20
2018-11-20T23:04:29.565Z,16.20
2018-11-20T23:07:31.780Z,16.10
2018-11-20T23:09:59.501Z,16.10
2018-11-20T23:12:27.124Z,16.10
2018-11-20T23:14:54.723Z,16.10
2018-11-20T23:17:23.313Z,16.10
2018-11-20T23:19:50.854Z,16.20
2018-11-20T23:22:18.755Z,16.10
2018-11-20T23:24:46.358Z,16.20
2018-11-20T23:27:16.594Z,16.20
2018-11-20T23:29:41.561Z,16.10
2018-11-20T23:32:09.114Z,16.20
2018-11-20T23:34:36.652Z,16.10
2018-11-20T23:37:04.252Z,16.10
2018-11-20T23:39:31.848Z,16.10
2018-11-20T23:41:59.374Z,16.10
2018-11-20T23:44:26.948Z,16.10
2018-11-20T23:46:54.487Z,16.10
2018-11-20T23:49:22.026Z,16.10
2018-11-20T23:51:49.595Z,16.10
2018-11-20T23:54:17.412Z,16.10
2018-11-20T23:56:44.986Z,16.10
2018-11-20T23:59:12.986Z,16.10
